Terminal Aerodrome Forecast
Issued by NWS Chicago, IL

Home | Current Version | Previous Version | Graphics & Text | Print | Product List | Glossary On
Versions: 1 2 3 4 5 6 7 8 9 10 11 12 13 14 15 16 17 18 19 20 21 22 23 24 25 26 27
157
FTUS43 KLOT 192340
TAFRFD
TAF
KRFD 192340Z 2000/2024 17005KT P6SM SCT040 BKN250
     FM200045 15005KT 6SM -SHRA VCTS SCT040 BKN120CB
      TEMPO 2001/2002 33025G40KT 1SM TSRA SCT007 BKN020 BKN060CB
     FM200200 16006KT P6SM SCT100 BKN250 PROB30 2009/2012 2SM TSRA
      SCT020 OVC060CB
     FM201200 20010KT P6SM SCT040 BKN250
     FM201800 28010KT P6SM SCT050 BKN150=

USA.gov is the U.S. government's official web portal to all federal, state and local government web resources and services.